Time;durP1;ratioP1;P1;durP2;ratioP2;P2;SDS_P1;SDS_P2;PMS_P1;PMS_P2;Temp;Humidity;BMP_temperature;BMP_pressure;BME280_temperature;BME280_humidity;BME280_pressure;Samples;Min_cycle;Max_cycle;Signal;HPM_P1;HPM_P2
2023/10/19 00:00:19;;;;;;;1999.90;999.90;;;;;;;7.79;100.00;92849.72;4989089;28;20305;-54
2023/10/19 00:02:46;;;;;;;1999.90;999.90;;;;;;;7.77;100.00;92844.00;4988398;28;20168;-54
2023/10/19 00:05:14;;;;;;;1999.90;999.90;;;;;;;7.80;100.00;92850.50;4987504;28;20192;-52
2023/10/19 00:07:40;;;;;;;1999.90;999.90;;;;;;;7.80;100.00;92859.41;4987863;28;20235;-55
2023/10/19 00:10:06;;;;;;;1999.90;999.90;;;;;;;7.81;100.00;92868.28;4987967;28;20511;-56
2023/10/19 00:12:32;;;;;;;1999.90;999.90;;;;;;;7.80;100.00;92873.00;4987211;28;20196;-53
2023/10/19 00:14:57;;;;;;;1999.90;999.90;;;;;;;7.75;100.00;92865.41;4987223;28;20197;-54
2023/10/19 00:17:23;;;;;;;1999.90;999.90;;;;;;;7.75;100.00;92864.66;4987386;28;20198;-54
2023/10/19 00:20:06;;;;;;;1999.90;999.90;;;;;;;7.71;100.00;92870.22;4987391;28;20199;-53
2023/10/19 00:22:35;;;;;;;1999.90;999.90;;;;;;;7.72;100.00;92873.69;4987103;28;20212;-54
2023/10/19 00:25:02;;;;;;;1999.90;999.90;;;;;;;7.69;100.00;92861.78;4987598;28;20203;-55
2023/10/19 00:27:28;;;;;;;1999.90;999.90;;;;;;;7.67;100.00;92868.84;4988363;28;20168;-51
2023/10/19 00:29:55;;;;;;;1999.90;999.90;;;;;;;7.61;100.00;92876.81;4987642;28;20197;-54
2023/10/19 00:32:24;;;;;;;1999.90;999.90;;;;;;;7.58;100.00;92877.69;4987387;28;20492;-54
2023/10/19 00:34:51;;;;;;;1999.90;999.90;;;;;;;7.59;100.00;92879.22;4987399;28;20204;-54
2023/10/19 00:37:20;;;;;;;1999.90;999.90;;;;;;;7.60;100.00;92869.88;4987388;28;20192;-53
2023/10/19 00:39:54;;;;;;;1999.90;999.90;;;;;;;7.57;100.00;92870.75;4988076;28;20203;-54
2023/10/19 00:42:24;;;;;;;1999.90;999.90;;;;;;;7.54;100.00;92871.63;4987248;28;20188;-56
2023/10/19 00:44:50;;;;;;;1999.90;999.90;;;;;;;7.53;100.00;92875.56;4987446;28;20200;-51
2023/10/19 00:47:18;;;;;;;1999.90;999.90;;;;;;;7.55;100.00;92875.13;4987049;28;20188;-57
2023/10/19 00:49:46;;;;;;;1999.90;999.90;;;;;;;7.57;100.00;92868.03;4987159;28;20200;-53
2023/10/19 00:52:18;;;;;;;1999.90;999.90;;;;;;;7.54;100.00;92871.63;4986628;28;20179;-53
2023/10/19 00:57:20;;;;;;;1999.90;999.90;;;;;;;7.54;100.00;92860.78;4987676;28;20198;-53
2023/10/19 00:59:52;;;;;;;1999.90;999.90;;;;;;;7.56;100.00;92863.81;4986558;28;20227;-54
2023/10/19 01:05:04;;;;;;;1999.90;999.90;;;;;;;7.61;100.00;92876.81;4987563;28;20196;-51
2023/10/19 01:07:30;;;;;;;1999.90;999.90;;;;;;;7.63;100.00;92874.41;4986916;28;20192;-52
2023/10/19 01:10:08;;;;;;;1999.90;999.90;;;;;;;7.63;100.00;92868.22;4986600;28;20199;-52
2023/10/19 01:12:38;;;;;;;1999.90;999.90;;;;;;;7.65;100.00;92861.13;4986234;28;20183;-51
2023/10/19 01:15:07;;;;;;;1999.90;999.90;;;;;;;7.65;100.00;92861.13;4986631;28;20193;-52
2023/10/19 01:17:39;;;;;;;1999.90;999.90;;;;;;;7.65;100.00;92858.41;4986551;28;20268;-53
2023/10/19 01:20:23;;;;;;;1999.90;999.90;;;;;;;7.71;100.00;92870.22;4986103;28;20200;-52
2023/10/19 01:23:14;;;;;;;1999.90;999.90;;;;;;;7.76;100.00;92861.47;4986152;28;20196;-51
2023/10/19 01:25:58;;;;;;;1999.90;999.90;;;;;;;7.79;100.00;92863.31;4986896;28;20226;-53
2023/10/19 01:31:22;;;;;;;1999.90;999.90;;;;;;;7.87;100.00;92864.53;4987163;28;20228;-53
2023/10/19 01:33:47;;;;;;;1999.90;999.90;;;;;;;7.91;100.00;92865.19;4985199;28;20255;-53
2023/10/19 01:38:48;;;;;;;1999.90;999.90;;;;;;;7.92;100.00;92863.97;4987010;28;20206;-54
2023/10/19 01:41:14;;;;;;;1999.90;999.90;;;;;;;7.94;100.00;92856.09;4986019;28;20212;-53
2023/10/19 01:43:44;;;;;;;1999.90;999.90;;;;;;;7.93;100.00;92846.44;4985958;28;20188;-54
2023/10/19 01:46:11;;;;;;;1999.90;999.90;;;;;;;7.96;100.00;92853.72;4985772;28;20196;-51
2023/10/19 01:48:41;;;;;;;1999.90;999.90;;;;;;;7.98;100.00;92848.56;4985817;28;20412;-54
2023/10/19 01:51:13;;;;;;;1999.90;999.90;;;;;;;7.98;100.00;92851.28;4986336;28;20188;-55
2023/10/19 01:53:39;;;;;;;1999.90;999.90;;;;;;;8.01;100.00;92872.13;4986413;28;20204;-56
2023/10/19 01:56:09;;;;;;;1999.90;999.90;;;;;;;8.02;100.00;92860.09;4985610;28;20196;-51
2023/10/19 01:58:36;;;;;;;1999.90;999.90;;;;;;;8.03;100.00;92848.00;4985291;28;20275;-53
2023/10/19 02:01:08;;;;;;;1999.90;999.90;;;;;;;8.06;100.00;92846.34;4986519;28;20264;-55
2023/10/19 02:03:35;;;;;;;1999.90;999.90;;;;;;;8.06;100.00;92851.78;4985511;28;20243;-54
2023/10/19 02:06:10;;;;;;;1999.90;999.90;;;;;;;8.03;100.00;92849.94;4985890;28;20184;-55
2023/10/19 02:08:38;;;;;;;1999.90;999.90;;;;;;;8.00;100.00;92838.03;4985831;28;20202;-52
2023/10/19 02:11:16;;;;;;;1999.90;999.90;;;;;;;7.94;100.00;92834.38;4985860;28;20211;-55
2023/10/19 02:13:41;;;;;;;1999.90;999.90;;;;;;;7.94;100.00;92849.94;4985570;28;20255;-52
2023/10/19 02:16:07;;;;;;;1999.90;999.90;;;;;;;7.99;100.00;92863.69;4985397;28;20196;-52
2023/10/19 02:18:34;;;;;;;1999.90;999.90;;;;;;;8.03;100.00;92864.31;4985081;28;20196;-53
2023/10/19 02:21:02;;;;;;;1999.90;999.90;;;;;;;8.10;100.00;92863.25;4985471;28;20189;-54
2023/10/19 02:23:28;;;;;;;1999.90;999.90;;;;;;;8.14;100.00;92867.34;4985096;28;20428;-54
2023/10/19 02:25:53;;;;;;;1999.90;999.90;;;;;;;8.18;100.00;92862.53;4985316;28;20216;-50
2023/10/19 02:28:25;;;;;;;1999.90;999.90;;;;;;;8.21;100.00;92858.94;4985596;28;20204;-53
2023/10/19 02:30:51;;;;;;;1999.90;999.90;;;;;;;8.26;100.00;92860.28;4986381;28;20264;-55
2023/10/19 02:33:16;;;;;;;1999.90;999.90;;;;;;;8.29;100.00;92859.41;4985219;28;20256;-54
2023/10/19 02:35:42;;;;;;;1999.90;999.90;;;;;;;8.30;100.00;92861.66;4985313;28;20450;-50
2023/10/19 02:38:07;;;;;;;1999.90;999.90;;;;;;;8.32;100.00;92859.28;4984860;28;20169;-53
2023/10/19 02:40:32;;;;;;;1999.90;999.90;;;;;;;8.34;100.00;92856.09;4984650;28;20195;-48
2023/10/19 02:43:02;;;;;;;1999.90;999.90;;;;;;;8.36;100.00;92859.88;4984913;28;20195;-48
2023/10/19 02:45:30;;;;;;;1999.90;999.90;;;;;;;8.37;100.00;92849.75;4985084;28;20193;-49
2023/10/19 02:47:57;;;;;;;1999.90;999.90;;;;;;;8.39;100.00;92848.09;4984728;28;20227;-53
2023/10/19 02:50:26;;;;;;;1999.90;999.90;;;;;;;8.40;100.00;92849.63;4984661;28;20280;-50
2023/10/19 02:52:53;;;;;;;1999.90;999.90;;;;;;;8.43;100.00;92851.44;4984739;28;20197;-54
2023/10/19 02:55:20;;;;;;;1999.90;999.90;;;;;;;8.45;100.00;92846.28;4984723;28;20587;-53
2023/10/19 02:57:46;;;;;;;1999.90;999.90;;;;;;;8.48;100.00;92839.94;4984816;28;20185;-53
2023/10/19 03:00:14;;;;;;;1999.90;999.90;;;;;;;8.50;100.00;92842.97;4985317;28;20372;-54
2023/10/19 03:02:40;;;;;;;1999.90;999.90;;;;;;;8.48;100.00;92839.94;4985232;28;20185;-53
2023/10/19 03:05:14;;;;;;;1999.90;999.90;;;;;;;8.48;100.00;92837.22;4984497;28;20175;-54
2023/10/19 03:07:43;;;;;;;1999.90;999.90;;;;;;;8.49;100.00;92833.28;4985527;28;20214;-55
2023/10/19 03:10:22;;;;;;;1999.90;999.90;;;;;;;8.48;100.00;92842.66;4984580;28;20215;-52
2023/10/19 03:12:49;;;;;;;1999.90;999.90;;;;;;;8.48;100.00;92829.06;4984437;28;20523;-53
2023/10/19 03:15:15;;;;;;;1999.90;999.90;;;;;;;8.49;100.00;92832.56;4984592;28;20267;-53
2023/10/19 03:17:40;;;;;;;1999.90;999.90;;;;;;;8.47;100.00;92833.00;4984440;28;20200;-53
2023/10/19 03:20:10;;;;;;;1999.90;999.90;;;;;;;8.46;100.00;92831.50;4984954;28;20275;-53
2023/10/19 03:22:38;;;;;;;1999.90;999.90;;;;;;;8.44;100.00;92833.91;4985256;28;20189;-53
2023/10/19 03:27:51;;;;;;;1999.90;999.90;;;;;;;8.45;100.00;92826.50;4985544;28;20191;-54
2023/10/19 03:30:18;;;;;;;1999.90;999.90;;;;;;;8.44;100.00;92823.03;4984767;28;20193;-52
2023/10/19 03:32:43;;;;;;;1999.90;999.90;;;;;;;8.44;100.00;92823.03;4984942;28;20192;-53
2023/10/19 03:35:13;;;;;;;1999.90;999.90;;;;;;;8.44;100.00;92809.44;4984398;28;20227;-48
2023/10/19 03:37:38;;;;;;;1999.90;999.90;;;;;;;8.46;100.00;92817.13;4985185;28;20219;-53
2023/10/19 03:40:09;;;;;;;1999.90;999.90;;;;;;;8.46;100.00;92820.63;4984741;28;20196;-55
2023/10/19 03:42:40;;;;;;;1999.90;999.90;;;;;;;8.48;100.00;92807.31;4985533;28;20212;-55
2023/10/19 03:45:12;;;;;;;1999.90;999.90;;;;;;;8.50;100.00;92801.44;4985997;28;20181;-52
2023/10/19 03:47:38;;;;;;;1999.90;999.90;;;;;;;8.52;100.00;92807.91;4985390;28;20192;-49
2023/10/19 03:50:08;;;;;;;1999.90;999.90;;;;;;;8.54;100.00;92808.22;4985311;28;20168;-50
2023/10/19 03:52:39;;;;;;;1999.90;999.90;;;;;;;8.55;100.00;92801.56;4984098;28;20220;-52
2023/10/19 03:55:11;;;;;;;1999.90;999.90;;;;;;;8.58;100.00;92789.03;4984011;28;20186;-53
2023/10/19 03:57:41;;;;;;;1999.90;999.90;;;;;;;8.56;100.00;92796.91;4985416;28;20225;-51
2023/10/19 04:00:16;;;;;;;1999.90;999.90;;;;;;;8.53;100.00;92793.09;4987861;28;20185;-51
2023/10/19 04:02:42;;;;;;;1999.90;999.90;;;;;;;8.53;100.00;92803.97;4987580;28;20259;-53
2023/10/19 04:05:14;;;;;;;1999.90;999.90;;;;;;;8.53;100.00;92803.97;4987723;28;20268;-51
2023/10/19 04:07:41;;;;;;;1999.90;999.90;;;;;;;8.53;100.00;92806.69;4987960;28;20185;-51
2023/10/19 04:12:35;;;;;;;1999.90;999.90;;;;;;;8.58;100.00;92808.06;4987875;28;20168;-52
2023/10/19 04:15:10;;;;;;;1999.90;999.90;;;;;;;8.56;100.00;92805.78;4988146;28;20516;-51
2023/10/19 04:17:38;;;;;;;1999.90;999.90;;;;;;;8.56;100.00;92803.06;4987728;28;20287;-53
2023/10/19 04:20:20;;;;;;;1999.90;999.90;;;;;;;8.57;100.00;92801.13;4987272;28;20204;-53
2023/10/19 04:22:47;;;;;;;1999.90;999.90;;;;;;;8.57;100.00;92804.59;4987531;28;20201;-54
2023/10/19 04:25:18;;;;;;;1999.90;999.90;;;;;;;8.61;100.00;92797.06;4987602;28;20196;-53
2023/10/19 04:27:44;;;;;;;1999.90;999.90;;;;;;;8.62;100.00;92800.50;4986756;28;20235;-52
2023/10/19 04:30:16;;;;;;;1999.90;999.90;;;;;;;8.63;100.00;92810.19;4987159;28;20212;-54
2023/10/19 04:32:43;;;;;;;1999.90;999.90;;;;;;;8.66;100.00;92804.59;4986829;28;20259;-54
2023/10/19 04:35:13;;;;;;;1999.90;999.90;;;;;;;8.66;100.00;92801.88;4986943;28;20177;-55
2023/10/19 04:37:42;;;;;;;1999.90;999.90;;;;;;;8.66;100.00;92791.00;4986571;28;20203;-53
2023/10/19 04:40:08;;;;;;;1999.90;999.90;;;;;;;8.66;100.00;92782.84;4986485;28;20228;-52
2023/10/19 04:42:34;;;;;;;1999.90;999.90;;;;;;;8.67;100.00;92787.06;4986747;28;20436;-53
2023/10/19 04:44:59;;;;;;;1999.90;999.90;;;;;;;8.61;100.00;92788.88;4986759;28;20200;-54
2023/10/19 04:47:24;;;;;;;1999.90;999.90;;;;;;;8.61;100.00;92783.44;4986481;28;20242;-53
2023/10/19 04:49:50;;;;;;;1999.90;999.90;;;;;;;8.62;100.00;92790.41;4986643;28;20282;-53
2023/10/19 04:52:15;;;;;;;1999.90;999.90;;;;;;;8.66;100.00;92795.66;4986316;28;20401;-52
2023/10/19 04:54:42;;;;;;;1999.90;999.90;;;;;;;8.63;100.00;92791.91;4986983;28;20231;-54
2023/10/19 04:57:07;;;;;;;1999.90;999.90;;;;;;;8.63;100.00;92802.78;4986748;28;20193;-52
2023/10/19 04:59:33;;;;;;;1999.90;999.90;;;;;;;8.66;100.00;92793.72;4986766;28;20199;-55
2023/10/19 05:02:00;;;;;;;1999.90;999.90;;;;;;;8.70;100.00;92797.03;4986286;28;20194;-54
2023/10/19 05:04:26;;;;;;;1999.90;999.90;;;;;;;8.71;100.00;92793.09;4986248;28;20253;-53
2023/10/19 05:06:52;;;;;;;1999.90;999.90;;;;;;;8.73;100.00;92793.41;4986061;28;20196;-56
2023/10/19 05:09:18;;;;;;;1999.90;999.90;;;;;;;8.77;100.00;92780.41;4986222;28;20196;-54
2023/10/19 05:11:45;;;;;;;1999.90;999.90;;;;;;;8.78;100.00;92792.78;4986009;28;20205;-54
2023/10/19 05:14:13;;;;;;;1999.90;999.90;;;;;;;8.81;100.00;92781.00;4986125;28;20299;-53
2023/10/19 05:16:39;;;;;;;1999.90;999.90;;;;;;;8.85;100.00;92781.59;4985971;28;20197;-53
2023/10/19 05:19:04;;;;;;;1999.90;999.90;;;;;;;8.88;100.00;92775.25;4986173;28;20193;-54
2023/10/19 05:21:30;;;;;;;1999.90;999.90;;;;;;;8.89;100.00;92774.03;4986206;28;20220;-56
2023/10/19 05:23:55;;;;;;;1999.90;999.90;;;;;;;8.91;100.00;92773.56;4986152;28;20197;-56
2023/10/19 05:26:21;;;;;;;1999.90;999.90;;;;;;;8.92;100.00;92775.06;4986031;28;20204;-54
2023/10/19 05:28:47;;;;;;;1999.90;999.90;;;;;;;8.94;100.00;92776.16;4986642;28;20192;-53
2023/10/19 05:31:13;;;;;;;1999.90;999.90;;;;;;;8.94;100.00;92776.16;4985401;28;20268;-58
2023/10/19 05:33:38;;;;;;;1999.90;999.90;;;;;;;8.98;100.00;92784.91;4986184;28;20377;-53
2023/10/19 05:36:05;;;;;;;1999.90;999.90;;;;;;;9.01;100.00;92783.25;4986197;28;20224;-55
2023/10/19 05:38:31;;;;;;;1999.90;999.90;;;;;;;9.02;100.00;92777.34;4985553;28;20283;-55
2023/10/19 05:40:58;;;;;;;1999.90;999.90;;;;;;;9.04;100.00;92782.34;4985561;28;20225;-57
2023/10/19 05:43:24;;;;;;;1999.90;999.90;;;;;;;9.05;100.00;92784.59;4986024;28;20197;-54
2023/10/19 05:45:50;;;;;;;1999.90;999.90;;;;;;;9.06;100.00;92780.66;4985672;28;20201;-51
2023/10/19 05:48:16;;;;;;;1999.90;999.90;;;;;;;9.08;100.00;92775.53;4985678;28;20243;-52
2023/10/19 05:50:42;;;;;;;1999.90;999.90;;;;;;;9.11;100.00;92779.28;4985526;28;20197;-51
2023/10/19 05:53:08;;;;;;;1999.90;999.90;;;;;;;9.13;100.00;92774.91;4985400;28;20223;-57
2023/10/19 05:55:36;;;;;;;1999.90;999.90;;;;;;;9.17;100.00;92770.03;4985468;28;20204;-57
2023/10/19 05:58:05;;;;;;;1999.90;999.90;;;;;;;9.17;100.00;92764.59;4985587;28;20197;-54
2023/10/19 06:00:30;;;;;;;1999.90;999.90;;;;;;;9.18;100.00;92757.94;4985150;28;20221;-55
2023/10/19 06:02:57;;;;;;;1999.90;999.90;;;;;;;9.19;100.00;92762.19;4985665;28;20173;-55
2023/10/19 06:05:23;;;;;;;1999.90;999.90;;;;;;;9.21;100.00;92764.44;4985922;28;20215;-54
2023/10/19 06:07:50;;;;;;;1999.90;999.90;;;;;;;9.25;100.00;92759.59;4984973;28;20205;-55
2023/10/19 06:10:22;;;;;;;1999.90;999.90;;;;;;;9.26;100.00;92761.84;4985291;28;20205;-56
2023/10/19 06:12:49;;;;;;;1999.90;999.90;;;;;;;9.32;100.00;92759.25;4984963;28;20247;-56
2023/10/19 06:15:16;;;;;;;1999.90;999.90;;;;;;;9.35;100.00;92747.44;4985061;28;20517;-55
2023/10/19 06:17:42;;;;;;;1999.90;999.90;;;;;;;9.37;100.00;92756.66;4984737;28;20497;-54
2023/10/19 06:20:19;;;;;;;1999.90;999.90;;;;;;;9.41;100.00;92760.00;4984531;28;20263;-54
2023/10/19 06:22:50;;;;;;;1999.90;999.90;;;;;;;9.45;100.00;92757.09;4986386;28;20189;-54
2023/10/19 06:25:17;;;;;;;1999.90;999.90;;;;;;;9.52;100.00;92759.47;4984900;28;20252;-55
2023/10/19 06:27:43;;;;;;;1999.90;999.90;;;;;;;9.56;100.00;92755.38;4984950;28;20162;-55
2023/10/19 06:30:10;;;;;;;1999.90;999.90;;;;;;;9.63;100.00;92763.22;4984988;28;20194;-54
2023/10/19 06:32:35;;;;;;;1999.90;999.90;;;;;;;9.67;100.00;92763.81;4985182;28;20362;-55
2023/10/19 06:35:01;;;;;;;1999.90;999.90;;;;;;;9.78;100.00;92768.75;4984823;28;20317;-54
2023/10/19 06:37:27;;;;;;;1999.90;999.90;;;;;;;9.80;100.00;92756.16;4984451;28;20202;-57
2023/10/19 06:39:52;;;;;;;1999.90;999.90;;;;;;;9.84;100.00;92745.84;4984759;28;20211;-55
2023/10/19 06:42:18;;;;;;;1999.90;999.90;;;;;;;9.88;100.00;92743.69;4984761;28;20281;-51
2023/10/19 06:44:43;;;;;;;1999.90;999.90;;;;;;;9.90;100.00;92760.34;4984717;28;20206;-54
2023/10/19 06:47:10;;;;;;;1999.90;999.90;;;;;;;9.96;100.00;92768.66;4984867;28;20205;-56
2023/10/19 06:49:35;;;;;;;1999.90;999.90;;;;;;;10.04;100.00;92754.22;4984671;28;20194;-54
2023/10/19 06:52:01;;;;;;;1999.90;999.90;;;;;;;10.04;100.00;92754.22;4984642;28;20272;-54
2023/10/19 06:54:29;;;;;;;1999.90;999.90;;;;;;;10.08;100.00;92741.19;4984750;28;20401;-56
2023/10/19 06:56:54;;;;;;;1999.90;999.90;;;;;;;10.18;100.00;92730.97;4985203;28;20173;-55
2023/10/19 06:59:20;;;;;;;1999.90;999.90;;;;;;;10.29;100.00;92709.38;4984395;28;20240;-54
2023/10/19 07:01:46;;;;;;;1999.90;999.90;;;;;;;10.41;100.00;92700.16;4984256;28;20494;-53
2023/10/19 07:04:12;;;;;;;1999.90;999.90;;;;;;;10.48;100.00;92666.34;4984525;28;20218;-54
2023/10/19 07:06:38;;;;;;;1999.90;999.90;;;;;;;10.56;100.00;92629.25;4984323;28;20207;-53
2023/10/19 07:09:05;;;;;;;1999.90;999.90;;;;;;;10.69;100.00;92589.53;4984419;28;20199;-54
2023/10/19 07:11:30;;;;;;;1999.90;999.90;;;;;;;10.81;100.00;92574.09;4985683;28;20195;-53
2023/10/19 07:13:55;;;;;;;1999.90;999.90;;;;;;;10.94;100.00;92560.88;4984459;28;20406;-51
2023/10/19 07:16:21;;;;;;;1999.90;999.90;;;;;;;11.09;100.00;92534.28;4985601;28;20266;-54
2023/10/19 07:18:46;;;;;;;1999.90;999.90;;;;;;;11.22;100.00;92515.59;4984445;28;20250;-55
2023/10/19 07:21:12;;;;;;;1999.90;999.90;;;;;;;11.45;100.00;92517.38;4985152;28;20197;-52
2023/10/19 07:23:38;;;;;;;1999.90;999.90;;;;;;;11.65;100.00;92509.94;4984612;28;20214;-54
2023/10/19 07:26:03;;;;;;;1999.90;999.90;;;;;;;11.86;100.00;92524.31;4984533;28;20200;-53
2023/10/19 07:28:31;;;;;;;1999.90;999.90;;;;;;;12.05;100.00;92545.41;4984048;28;20227;-53
2023/10/19 07:30:56;;;;;;;1999.90;999.90;;;;;;;12.13;100.00;92560.16;4985265;28;20191;-53
2023/10/19 07:33:22;;;;;;;1999.90;999.90;;;;;;;12.29;100.00;92589.69;4987295;28;20299;-55
2023/10/19 07:35:52;;;;;;;1999.90;999.90;;;;;;;12.39;100.00;92614.91;4988282;28;20192;-56
2023/10/19 07:38:20;;;;;;;1999.90;999.90;;;;;;;12.51;100.00;92644.66;4988220;28;20279;-53
2023/10/19 07:40:46;;;;;;;1999.90;999.90;;;;;;;12.59;100.00;92666.88;4987923;28;20214;-54
2023/10/19 07:43:11;;;;;;;1999.90;999.90;;;;;;;12.65;100.00;92697.81;4987858;28;20484;-53
2023/10/19 07:45:37;;;;;;;1999.90;999.90;;;;;;;12.76;100.00;92720.56;4988236;28;20226;-54
2023/10/19 07:48:06;;;;;;;1999.90;999.90;;;;;;;12.86;100.00;92745.84;4988125;28;20197;-55
2023/10/19 07:50:36;;;;;;;1999.90;999.90;;;;;;;12.95;100.00;92786.75;4988152;28;20189;-54
2023/10/19 07:53:02;;;;;;;1999.90;999.90;;;;;;;13.06;100.00;92819.78;4988005;28;20204;-56
2023/10/19 07:55:27;;;;;;;1999.90;999.90;;;;;;;13.17;100.00;92852.78;4987868;28;20187;-53
2023/10/19 07:57:53;;;;;;;1999.90;999.90;;;;;;;13.28;100.00;92880.31;4987940;28;20279;-55
2023/10/19 08:00:20;;;;;;;1999.90;999.90;;;;;;;13.38;100.00;92922.81;4988534;28;20192;-54
2023/10/19 08:02:46;;;;;;;1999.90;999.90;;;;;;;13.42;100.00;92972.69;4987468;28;20197;-50
2023/10/19 08:05:12;;;;;;;1999.90;999.90;;;;;;;13.45;100.00;93006.63;4987619;28;20197;-56
2023/10/19 08:07:39;;;;;;;1999.90;999.90;;;;;;;13.57;100.00;93028.22;4987324;28;20247;-55
2023/10/19 08:10:09;;;;;;;1999.90;999.90;;;;;;;13.62;100.00;93041.25;4987696;28;20192;-59
2023/10/19 08:12:34;;;;;;;1999.90;999.90;;;;;;;13.75;100.00;93058.13;4987513;28;20203;-56
2023/10/19 08:15:01;;;;;;;1999.90;999.90;;;;;;;13.90;100.00;93075.25;4987525;28;20212;-54
2023/10/19 08:17:26;;;;;;;1999.90;999.90;;;;;;;14.16;100.00;93080.81;4987570;28;20231;-54
2023/10/19 08:19:51;;;;;;;1999.90;999.90;;;;;;;14.53;100.00;93107.19;4987825;28;20200;-54
2023/10/19 08:22:17;;;;;;;1999.90;999.90;;;;;;;14.82;100.00;93152.94;4987111;28;20204;-51
2023/10/19 08:24:43;;;;;;;1999.90;999.90;;;;;;;14.98;100.00;93210.06;4987456;28;20187;-53
2023/10/19 08:27:10;;;;;;;1999.90;999.90;;;;;;;15.08;100.00;93261.66;4986916;28;20196;-54
2023/10/19 08:29:39;;;;;;;1999.90;999.90;;;;;;;15.18;100.00;93282.25;4987488;28;20197;-51
2023/10/19 08:32:06;;;;;;;1999.90;999.90;;;;;;;15.35;100.00;93302.50;4986789;28;20251;-51
2023/10/19 08:34:36;;;;;;;1999.90;999.90;;;;;;;15.47;100.00;93339.88;4986778;28;20216;-51
2023/10/19 08:37:04;;;;;;;1999.90;999.90;;;;;;;15.58;100.00;93352.97;4987923;28;20212;-53
2023/10/19 08:39:35;;;;;;;1999.90;999.90;;;;;;;15.65;100.00;93364.31;4986752;28;20208;-53
2023/10/19 08:42:02;;;;;;;1999.90;999.90;;;;;;;15.69;100.00;93370.38;4987003;28;20192;-53
2023/10/19 08:44:30;;;;;;;1999.90;999.90;;;;;;;15.73;100.00;93359.88;4987895;28;20191;-53
2023/10/19 08:46:57;;;;;;;1999.90;999.90;;;;;;;15.73;100.00;93354.38;4986631;28;20196;-54
2023/10/19 08:49:22;;;;;;;1999.90;999.90;;;;;;;15.73;100.00;93340.63;4987319;28;20215;-55
2023/10/19 08:51:51;;;;;;;1999.90;999.90;;;;;;;15.78;100.00;93317.88;4986612;28;20192;-52
2023/10/19 08:54:16;;;;;;;1999.90;999.90;;;;;;;15.91;100.00;93318.28;4986759;28;20493;-54
2023/10/19 08:56:42;;;;;;;1999.90;999.90;;;;;;;16.02;100.00;93304.59;4986509;28;20204;-54
2023/10/19 08:59:11;;;;;;;1999.90;999.90;;;;;;;16.09;100.00;93315.16;4986451;28;20203;-53
2023/10/19 09:01:37;;;;;;;1999.90;999.90;;;;;;;16.16;100.00;93320.22;4986531;28;20204;-54
2023/10/19 09:04:05;;;;;;;1999.90;999.90;;;;;;;16.21;100.00;93327.78;4986322;28;20215;-54
2023/10/19 09:06:41;;;;;;;1999.90;999.90;;;;;;;16.22;100.00;93334.78;4987785;28;20196;-53
2023/10/19 09:09:09;;;;;;;1999.90;999.90;;;;;;;16.28;100.00;93346.59;4986679;28;20243;-52
2023/10/19 09:11:34;;;;;;;1999.90;999.90;;;;;;;16.29;100.00;93341.88;4986488;28;20200;-53
2023/10/19 09:14:00;;;;;;;1999.90;999.90;;;;;;;16.34;100.00;93313.59;4986490;28;20207;-53
2023/10/19 09:16:26;;;;;;;1999.90;999.90;;;;;;;16.29;100.00;93287.50;4985943;28;20180;-54
2023/10/19 09:18:52;;;;;;;1999.90;999.90;;;;;;;16.26;100.00;93263.72;4987431;28;20230;-52
2023/10/19 09:21:25;;;;;;;1999.90;999.90;;;;;;;16.26;100.00;93247.19;4986341;28;20192;-49
2023/10/19 09:23:55;;;;;;;1999.90;999.90;;;;;;;16.30;100.00;93219.41;4985963;28;20279;-53
2023/10/19 09:26:22;;;;;;;1999.90;999.90;;;;;;;16.32;100.00;93222.44;4986331;28;20251;-53
2023/10/19 09:28:50;;;;;;;1999.90;999.90;;;;;;;16.36;100.00;93222.94;4986025;28;20193;-52
2023/10/19 09:31:16;;;;;;;1999.90;999.90;;;;;;;16.39;100.00;93211.69;4985944;28;20193;-55
2023/10/19 09:33:46;;;;;;;1999.90;999.90;;;;;;;16.37;100.00;93208.69;4985835;28;20235;-55
2023/10/19 09:36:13;;;;;;;1999.90;999.90;;;;;;;16.35;100.00;93197.41;4986597;28;20461;-53
2023/10/19 09:38:51;;;;;;;1999.90;999.90;;;;;;;16.27;100.00;93190.84;4985979;28;20200;-52
2023/10/19 09:41:21;;;;;;;1999.90;999.90;;;;;;;16.23;100.00;93182.06;4986303;28;20179;-52
2023/10/19 09:43:50;;;;;;;1999.90;999.90;;;;;;;16.21;100.00;93164.53;4985957;28;20212;-54
2023/10/19 09:46:29;;;;;;;1999.90;999.90;;;;;;;16.18;100.00;93140.72;4985657;28;20196;-54
2023/10/19 09:48:55;;;;;;;1999.90;999.90;;;;;;;16.16;100.00;93130.19;4985450;28;20203;-54
2023/10/19 09:51:22;;;;;;;1999.90;999.90;;;;;;;16.22;100.00;93119.94;4985578;28;20192;-53
2023/10/19 09:54:11;;;;;;;1999.90;999.90;;;;;;;16.35;100.00;93128.53;4985459;28;20207;-54
2023/10/19 09:56:41;;;;;;;1999.90;999.90;;;;;;;16.56;100.00;93134.63;4985572;28;20189;-53
2023/10/19 09:59:31;;;;;;;1999.90;999.90;;;;;;;17.02;100.00;93175.59;4985318;28;20200;-53
2023/10/19 10:02:13;;;;;;;1999.90;999.90;;;;;;;17.35;100.00;93222.56;4985738;28;20324;-51
2023/10/19 10:04:46;;;;;;;1999.90;999.90;;;;;;;17.79;100.00;93272.31;4985233;28;20208;-50
2023/10/19 10:07:12;;;;;;;1999.90;999.90;;;;;;;17.82;100.00;93343.13;4985534;28;20235;-54
2023/10/19 10:09:43;;;;;;;1999.90;999.90;;;;;;;17.70;100.00;93380.25;4985098;28;20527;-54
2023/10/19 10:12:16;;;;;;;1999.90;999.90;;;;;;;17.59;100.00;93410.59;4985786;28;20200;-52
2023/10/19 10:15:03;;;;;;;1999.90;999.90;;;;;;;17.60;100.00;93412.09;4986637;28;20192;-53
2023/10/19 10:17:32;;;;;;;1999.90;999.90;;;;;;;17.54;100.00;93411.31;4985626;28;20204;-54
2023/10/19 10:20:22;;;;;;;1999.90;999.90;;;;;;;17.60;100.00;93403.81;4984979;28;20220;-53
2023/10/19 10:23:17;;;;;;;1999.90;999.90;;;;;;;17.74;100.00;93402.88;4985505;28;20263;-54
2023/10/19 10:25:48;;;;;;;1999.90;999.90;;;;;;;17.80;100.00;93400.84;4982920;28;20255;-53
2023/10/19 10:28:15;;;;;;;1999.90;999.90;;;;;;;17.85;100.00;93402.91;4985120;28;20239;-55
2023/10/19 10:31:14;;;;;;;1999.90;999.90;;;;;;;18.02;100.00;93411.97;4985992;28;20177;-55
2023/10/19 10:33:40;;;;;;;1999.90;999.90;;;;;;;18.09;100.00;93411.47;4985206;28;20235;-55
2023/10/19 10:36:06;;;;;;;1999.90;999.90;;;;;;;18.22;100.00;93411.75;4984939;28;20192;-54
2023/10/19 10:38:35;;;;;;;1999.90;999.90;;;;;;;18.02;100.00;93417.47;4984779;28;20259;-48
2023/10/19 10:41:01;;;;;;;1999.90;999.90;;;;;;;18.09;100.00;93417.00;4985086;28;20271;-48
2023/10/19 10:43:27;;;;;;;1999.90;999.90;;;;;;;18.06;100.00;93429.06;4985179;28;20236;-55
2023/10/19 10:46:03;;;;;;;1999.90;999.90;;;;;;;18.04;100.00;93426.03;4986165;28;20184;-50
2023/10/19 10:48:28;;;;;;;1999.90;999.90;;;;;;;17.98;100.00;93436.31;4984897;28;20199;-55
2023/10/19 10:50:53;;;;;;;1999.90;999.90;;;;;;;18.00;100.00;93425.53;4984503;28;20192;-54
2023/10/19 10:53:19;;;;;;;1999.90;999.90;;;;;;;18.12;100.00;93427.06;4985476;28;20204;-52
2023/10/19 10:55:45;;;;;;;1999.90;999.90;;;;;;;18.21;100.00;93421.31;4985755;28;20189;-52
2023/10/19 10:58:18;;;;;;;1999.90;999.90;;;;;;;18.31;100.00;93425.31;4985111;28;20200;-55
2023/10/19 11:00:45;;;;;;;1999.90;999.90;;;;;;;18.28;100.00;93429.84;4984752;28;20279;-52
2023/10/19 11:03:10;;;;;;;1999.90;999.90;;;;;;;18.70;100.00;93426.13;4984676;28;20196;-55
2023/10/19 11:05:37;;;;;;;1999.90;999.90;;;;;;;18.68;100.00;93446.00;4985335;28;20236;-55
2023/10/19 11:08:09;;;;;;;1999.90;999.90;;;;;;;18.51;100.00;93458.31;4988668;28;20203;-55
2023/10/19 11:10:36;;;;;;;1999.90;999.90;;;;;;;18.66;100.00;93467.13;4988683;28;20271;-54
2023/10/19 11:13:09;;;;;;;1999.90;999.90;;;;;;;19.06;100.00;93461.81;4989777;28;20188;-53